sensor_id;sensor_type;location;lat;lon;timestamp;P1;durP1;ratioP1;P2;durP2;ratioP2
38162;SDS011;23977;53.078;18.248;2023-03-01T00:01:22;51.50;;;21.10;;
38162;SDS011;23977;53.078;18.248;2023-03-01T00:03:50;51.92;;;20.55;;
38162;SDS011;23977;53.078;18.248;2023-03-01T00:06:17;52.75;;;21.02;;
38162;SDS011;23977;53.078;18.248;2023-03-01T00:08:44;45.22;;;18.60;;
38162;SDS011;23977;53.078;18.248;2023-03-01T00:11:20;46.88;;;18.88;;
38162;SDS011;23977;53.078;18.248;2023-03-01T00:13:49;45.15;;;18.77;;
38162;SDS011;23977;53.078;18.248;2023-03-01T00:16:17;54.95;;;22.45;;
38162;SDS011;23977;53.078;18.248;2023-03-01T00:18:45;52.55;;;21.30;;
38162;SDS011;23977;53.078;18.248;2023-03-01T00:21:11;54.75;;;21.00;;
38162;SDS011;23977;53.078;18.248;2023-03-01T00:23:37;57.35;;;23.23;;
38162;SDS011;23977;53.078;18.248;2023-03-01T00:26:07;43.25;;;18.95;;
38162;SDS011;23977;53.078;18.248;2023-03-01T00:28:35;49.00;;;19.63;;
38162;SDS011;23977;53.078;18.248;2023-03-01T00:31:05;47.08;;;19.77;;
38162;SDS011;23977;53.078;18.248;2023-03-01T00:33:31;51.78;;;20.25;;
38162;SDS011;23977;53.078;18.248;2023-03-01T00:35:58;44.60;;;19.42;;
38162;SDS011;23977;53.078;18.248;2023-03-01T00:38:24;44.38;;;18.98;;
38162;SDS011;23977;53.078;18.248;2023-03-01T00:40:50;44.67;;;18.52;;
38162;SDS011;23977;53.078;18.248;2023-03-01T00:43:15;40.25;;;18.45;;
38162;SDS011;23977;53.078;18.248;2023-03-01T00:45:41;45.40;;;18.45;;
38162;SDS011;23977;53.078;18.248;2023-03-01T00:48:07;47.45;;;20.77;;
38162;SDS011;23977;53.078;18.248;2023-03-01T00:50:32;51.60;;;20.98;;
38162;SDS011;23977;53.078;18.248;2023-03-01T00:52:58;55.90;;;20.98;;
38162;SDS011;23977;53.078;18.248;2023-03-01T00:55:25;48.88;;;20.55;;
38162;SDS011;23977;53.078;18.248;2023-03-01T00:57:51;49.92;;;19.58;;
38162;SDS011;23977;53.078;18.248;2023-03-01T01:00:17;50.45;;;20.05;;
38162;SDS011;23977;53.078;18.248;2023-03-01T01:02:43;50.58;;;20.52;;
38162;SDS011;23977;53.078;18.248;2023-03-01T01:05:09;46.20;;;19.60;;
38162;SDS011;23977;53.078;18.248;2023-03-01T01:07:36;48.65;;;19.15;;
38162;SDS011;23977;53.078;18.248;2023-03-01T01:10:02;47.03;;;19.35;;
38162;SDS011;23977;53.078;18.248;2023-03-01T01:12:28;53.17;;;20.80;;
38162;SDS011;23977;53.078;18.248;2023-03-01T01:14:54;47.47;;;19.92;;
38162;SDS011;23977;53.078;18.248;2023-03-01T01:17:19;47.38;;;18.70;;
38162;SDS011;23977;53.078;18.248;2023-03-01T01:19:45;45.20;;;18.63;;
38162;SDS011;23977;53.078;18.248;2023-03-01T01:22:11;44.63;;;18.02;;
38162;SDS011;23977;53.078;18.248;2023-03-01T01:24:37;41.42;;;17.08;;
38162;SDS011;23977;53.078;18.248;2023-03-01T01:27:02;40.15;;;17.50;;
38162;SDS011;23977;53.078;18.248;2023-03-01T01:29:28;41.45;;;16.98;;
38162;SDS011;23977;53.078;18.248;2023-03-01T01:31:54;39.47;;;16.17;;
38162;SDS011;23977;53.078;18.248;2023-03-01T01:34:20;42.33;;;17.90;;
38162;SDS011;23977;53.078;18.248;2023-03-01T01:36:50;37.80;;;17.27;;
38162;SDS011;23977;53.078;18.248;2023-03-01T01:39:19;42.10;;;17.30;;
38162;SDS011;23977;53.078;18.248;2023-03-01T01:41:48;35.67;;;16.45;;
38162;SDS011;23977;53.078;18.248;2023-03-01T01:44:25;42.28;;;18.33;;
38162;SDS011;23977;53.078;18.248;2023-03-01T01:47:08;42.60;;;17.80;;
38162;SDS011;23977;53.078;18.248;2023-03-01T01:49:43;44.85;;;17.73;;
38162;SDS011;23977;53.078;18.248;2023-03-01T01:52:23;41.75;;;17.45;;
38162;SDS011;23977;53.078;18.248;2023-03-01T01:55:05;43.38;;;18.50;;
38162;SDS011;23977;53.078;18.248;2023-03-01T01:57:43;42.53;;;18.55;;
38162;SDS011;23977;53.078;18.248;2023-03-01T02:00:15;47.42;;;18.75;;
38162;SDS011;23977;53.078;18.248;2023-03-01T02:02:43;40.65;;;17.85;;
38162;SDS011;23977;53.078;18.248;2023-03-01T02:05:12;41.28;;;17.90;;
38162;SDS011;23977;53.078;18.248;2023-03-01T02:07:51;40.75;;;18.52;;
38162;SDS011;23977;53.078;18.248;2023-03-01T02:10:17;46.97;;;18.63;;
38162;SDS011;23977;53.078;18.248;2023-03-01T02:12:43;43.25;;;18.02;;
38162;SDS011;23977;53.078;18.248;2023-03-01T02:15:09;38.20;;;17.65;;
38162;SDS011;23977;53.078;18.248;2023-03-01T02:17:35;48.45;;;20.08;;
38162;SDS011;23977;53.078;18.248;2023-03-01T02:22:40;47.00;;;19.08;;
38162;SDS011;23977;53.078;18.248;2023-03-01T02:27:47;43.28;;;17.30;;
38162;SDS011;23977;53.078;18.248;2023-03-01T02:30:38;38.45;;;16.48;;
38162;SDS011;23977;53.078;18.248;2023-03-01T02:33:24;40.00;;;17.33;;
38162;SDS011;23977;53.078;18.248;2023-03-01T02:35:51;41.38;;;18.33;;
38162;SDS011;23977;53.078;18.248;2023-03-01T02:38:18;37.95;;;17.42;;
38162;SDS011;23977;53.078;18.248;2023-03-01T02:40:44;37.45;;;16.02;;
38162;SDS011;23977;53.078;18.248;2023-03-01T02:43:11;39.55;;;17.02;;
38162;SDS011;23977;53.078;18.248;2023-03-01T02:45:37;38.08;;;16.75;;
38162;SDS011;23977;53.078;18.248;2023-03-01T02:48:13;37.60;;;16.42;;
38162;SDS011;23977;53.078;18.248;2023-03-01T02:53:39;37.65;;;17.25;;
38162;SDS011;23977;53.078;18.248;2023-03-01T02:56:13;39.42;;;16.48;;
38162;SDS011;23977;53.078;18.248;2023-03-01T02:58:40;39.60;;;16.83;;
38162;SDS011;23977;53.078;18.248;2023-03-01T03:01:14;37.13;;;16.45;;
38162;SDS011;23977;53.078;18.248;2023-03-01T03:03:41;39.95;;;17.23;;
38162;SDS011;23977;53.078;18.248;2023-03-01T03:06:07;39.08;;;16.83;;
38162;SDS011;23977;53.078;18.248;2023-03-01T03:08:32;38.25;;;16.63;;
38162;SDS011;23977;53.078;18.248;2023-03-01T03:10:58;41.72;;;17.00;;
38162;SDS011;23977;53.078;18.248;2023-03-01T03:13:24;38.80;;;17.08;;
38162;SDS011;23977;53.078;18.248;2023-03-01T03:15:56;37.10;;;17.40;;
38162;SDS011;23977;53.078;18.248;2023-03-01T03:18:22;41.25;;;17.25;;
38162;SDS011;23977;53.078;18.248;2023-03-01T03:20:51;41.38;;;16.80;;
38162;SDS011;23977;53.078;18.248;2023-03-01T03:23:19;43.15;;;17.38;;
38162;SDS011;23977;53.078;18.248;2023-03-01T03:25:47;38.08;;;16.88;;
38162;SDS011;23977;53.078;18.248;2023-03-01T03:28:14;37.85;;;16.65;;
38162;SDS011;23977;53.078;18.248;2023-03-01T03:30:41;41.00;;;17.90;;
38162;SDS011;23977;53.078;18.248;2023-03-01T03:33:09;34.35;;;15.20;;
38162;SDS011;23977;53.078;18.248;2023-03-01T03:35:40;36.35;;;15.27;;
38162;SDS011;23977;53.078;18.248;2023-03-01T03:38:09;32.67;;;14.45;;
38162;SDS011;23977;53.078;18.248;2023-03-01T03:40:51;36.42;;;14.50;;
38162;SDS011;23977;53.078;18.248;2023-03-01T03:43:26;31.67;;;13.73;;
38162;SDS011;23977;53.078;18.248;2023-03-01T03:45:52;33.15;;;14.73;;
38162;SDS011;23977;53.078;18.248;2023-03-01T03:48:18;32.47;;;14.13;;
38162;SDS011;23977;53.078;18.248;2023-03-01T03:50:47;30.98;;;13.43;;
38162;SDS011;23977;53.078;18.248;2023-03-01T03:53:15;31.85;;;13.27;;
38162;SDS011;23977;53.078;18.248;2023-03-01T03:55:40;29.13;;;12.93;;
38162;SDS011;23977;53.078;18.248;2023-03-01T03:58:07;27.77;;;12.68;;
38162;SDS011;23977;53.078;18.248;2023-03-01T04:00:34;30.25;;;12.55;;
38162;SDS011;23977;53.078;18.248;2023-03-01T04:03:05;26.33;;;12.50;;
38162;SDS011;23977;53.078;18.248;2023-03-01T04:05:32;27.95;;;13.10;;
38162;SDS011;23977;53.078;18.248;2023-03-01T04:07:58;29.63;;;12.93;;
38162;SDS011;23977;53.078;18.248;2023-03-01T04:10:27;32.33;;;13.20;;
38162;SDS011;23977;53.078;18.248;2023-03-01T04:12:55;30.83;;;13.93;;
38162;SDS011;23977;53.078;18.248;2023-03-01T04:15:21;33.03;;;13.45;;
38162;SDS011;23977;53.078;18.248;2023-03-01T04:17:50;32.88;;;14.23;;
38162;SDS011;23977;53.078;18.248;2023-03-01T04:20:18;33.35;;;14.23;;
38162;SDS011;23977;53.078;18.248;2023-03-01T04:22:59;36.85;;;14.70;;
38162;SDS011;23977;53.078;18.248;2023-03-01T04:25:41;34.25;;;14.65;;
38162;SDS011;23977;53.078;18.248;2023-03-01T04:28:11;33.25;;;14.95;;
38162;SDS011;23977;53.078;18.248;2023-03-01T04:30:37;35.78;;;14.75;;
38162;SDS011;23977;53.078;18.248;2023-03-01T04:33:08;35.63;;;15.00;;
38162;SDS011;23977;53.078;18.248;2023-03-01T04:35:35;33.05;;;15.13;;
38162;SDS011;23977;53.078;18.248;2023-03-01T04:38:02;32.95;;;15.32;;
38162;SDS011;23977;53.078;18.248;2023-03-01T04:40:28;84.70;;;28.58;;
38162;SDS011;23977;53.078;18.248;2023-03-01T04:42:54;107.85;;;34.17;;
38162;SDS011;23977;53.078;18.248;2023-03-01T04:45:20;96.80;;;33.08;;
38162;SDS011;23977;53.078;18.248;2023-03-01T04:47:46;78.22;;;28.77;;
38162;SDS011;23977;53.078;18.248;2023-03-01T04:50:13;78.15;;;26.60;;
38162;SDS011;23977;53.078;18.248;2023-03-01T04:52:42;57.30;;;21.60;;
38162;SDS011;23977;53.078;18.248;2023-03-01T04:55:08;46.50;;;18.40;;
38162;SDS011;23977;53.078;18.248;2023-03-01T04:57:35;40.22;;;16.80;;
38162;SDS011;23977;53.078;18.248;2023-03-01T05:00:00;48.22;;;18.92;;
38162;SDS011;23977;53.078;18.248;2023-03-01T05:02:26;61.53;;;21.75;;
38162;SDS011;23977;53.078;18.248;2023-03-01T05:04:52;76.05;;;24.77;;
38162;SDS011;23977;53.078;18.248;2023-03-01T05:07:22;83.25;;;27.08;;
38162;SDS011;23977;53.078;18.248;2023-03-01T05:09:49;76.85;;;25.40;;
38162;SDS011;23977;53.078;18.248;2023-03-01T05:12:15;70.20;;;22.60;;
38162;SDS011;23977;53.078;18.248;2023-03-01T05:14:41;65.95;;;22.58;;
38162;SDS011;23977;53.078;18.248;2023-03-01T05:17:07;49.05;;;19.52;;
38162;SDS011;23977;53.078;18.248;2023-03-01T05:19:33;38.72;;;16.40;;
38162;SDS011;23977;53.078;18.248;2023-03-01T05:21:59;41.92;;;15.45;;
38162;SDS011;23977;53.078;18.248;2023-03-01T05:24:33;36.22;;;14.52;;
38162;SDS011;23977;53.078;18.248;2023-03-01T05:27:00;34.17;;;14.57;;
38162;SDS011;23977;53.078;18.248;2023-03-01T05:29:28;32.58;;;14.93;;
38162;SDS011;23977;53.078;18.248;2023-03-01T05:31:56;29.40;;;14.10;;
38162;SDS011;23977;53.078;18.248;2023-03-01T05:34:27;34.38;;;14.75;;
38162;SDS011;23977;53.078;18.248;2023-03-01T05:36:55;34.25;;;14.55;;
38162;SDS011;23977;53.078;18.248;2023-03-01T05:39:22;36.20;;;17.90;;
38162;SDS011;23977;53.078;18.248;2023-03-01T05:41:54;40.38;;;18.95;;
38162;SDS011;23977;53.078;18.248;2023-03-01T05:44:26;37.80;;;18.15;;
38162;SDS011;23977;53.078;18.248;2023-03-01T05:46:54;39.67;;;17.73;;
38162;SDS011;23977;53.078;18.248;2023-03-01T05:49:20;35.58;;;17.02;;
38162;SDS011;23977;53.078;18.248;2023-03-01T05:51:50;37.35;;;16.63;;
38162;SDS011;23977;53.078;18.248;2023-03-01T05:54:17;37.20;;;16.90;;
38162;SDS011;23977;53.078;18.248;2023-03-01T05:56:44;40.85;;;18.83;;
38162;SDS011;23977;53.078;18.248;2023-03-01T05:59:09;41.72;;;19.60;;
38162;SDS011;23977;53.078;18.248;2023-03-01T06:01:36;47.85;;;20.20;;
38162;SDS011;23977;53.078;18.248;2023-03-01T06:04:03;50.75;;;20.00;;
38162;SDS011;23977;53.078;18.248;2023-03-01T06:06:29;68.40;;;23.70;;
38162;SDS011;23977;53.078;18.248;2023-03-01T06:08:58;92.63;;;27.30;;
38162;SDS011;23977;53.078;18.248;2023-03-01T06:11:24;109.28;;;31.27;;
38162;SDS011;23977;53.078;18.248;2023-03-01T06:13:49;123.63;;;34.58;;
38162;SDS011;23977;53.078;18.248;2023-03-01T06:16:15;111.03;;;33.05;;
38162;SDS011;23977;53.078;18.248;2023-03-01T06:18:41;153.98;;;41.35;;
38162;SDS011;23977;53.078;18.248;2023-03-01T06:21:07;174.40;;;45.78;;
38162;SDS011;23977;53.078;18.248;2023-03-01T06:23:33;151.05;;;41.45;;
38162;SDS011;23977;53.078;18.248;2023-03-01T06:26:00;143.70;;;42.58;;
38162;SDS011;23977;53.078;18.248;2023-03-01T06:28:26;136.60;;;39.50;;
38162;SDS011;23977;53.078;18.248;2023-03-01T06:30:51;70.07;;;25.65;;
38162;SDS011;23977;53.078;18.248;2023-03-01T06:33:18;59.33;;;22.27;;
38162;SDS011;23977;53.078;18.248;2023-03-01T06:35:46;52.63;;;20.40;;
38162;SDS011;23977;53.078;18.248;2023-03-01T06:38:12;40.17;;;18.08;;
38162;SDS011;23977;53.078;18.248;2023-03-01T06:40:40;43.55;;;18.23;;
38162;SDS011;23977;53.078;18.248;2023-03-01T06:43:06;38.17;;;17.98;;
38162;SDS011;23977;53.078;18.248;2023-03-01T06:45:33;37.25;;;17.27;;
38162;SDS011;23977;53.078;18.248;2023-03-01T06:48:02;31.88;;;17.42;;
38162;SDS011;23977;53.078;18.248;2023-03-01T06:50:32;32.65;;;17.33;;
38162;SDS011;23977;53.078;18.248;2023-03-01T06:52:59;37.08;;;19.45;;
38162;SDS011;23977;53.078;18.248;2023-03-01T06:55:25;42.72;;;22.52;;
38162;SDS011;23977;53.078;18.248;2023-03-01T06:57:54;37.63;;;20.65;;
38162;SDS011;23977;53.078;18.248;2023-03-01T07:00:24;38.55;;;21.30;;
38162;SDS011;23977;53.078;18.248;2023-03-01T07:02:51;34.22;;;19.63;;
38162;SDS011;23977;53.078;18.248;2023-03-01T07:05:19;34.47;;;18.88;;
38162;SDS011;23977;53.078;18.248;2023-03-01T07:07:45;33.25;;;18.00;;
38162;SDS011;23977;53.078;18.248;2023-03-01T07:10:12;34.38;;;19.15;;
38162;SDS011;23977;53.078;18.248;2023-03-01T07:12:37;28.85;;;17.83;;
38162;SDS011;23977;53.078;18.248;2023-03-01T07:15:03;29.60;;;17.95;;
38162;SDS011;23977;53.078;18.248;2023-03-01T07:17:29;27.05;;;17.25;;
38162;SDS011;23977;53.078;18.248;2023-03-01T07:19:56;29.55;;;17.23;;
38162;SDS011;23977;53.078;18.248;2023-03-01T07:22:22;29.77;;;17.55;;
38162;SDS011;23977;53.078;18.248;2023-03-01T07:24:48;25.85;;;17.40;;
38162;SDS011;23977;53.078;18.248;2023-03-01T07:27:13;28.73;;;18.77;;
38162;SDS011;23977;53.078;18.248;2023-03-01T07:29:39;28.55;;;19.42;;
38162;SDS011;23977;53.078;18.248;2023-03-01T07:32:05;31.27;;;21.42;;
38162;SDS011;23977;53.078;18.248;2023-03-01T07:34:31;31.65;;;22.20;;
38162;SDS011;23977;53.078;18.248;2023-03-01T07:36:57;29.80;;;21.25;;
38162;SDS011;23977;53.078;18.248;2023-03-01T07:39:23;28.15;;;19.55;;
38162;SDS011;23977;53.078;18.248;2023-03-01T07:41:49;31.20;;;20.65;;
38162;SDS011;23977;53.078;18.248;2023-03-01T07:44:15;27.52;;;20.38;;
38162;SDS011;23977;53.078;18.248;2023-03-01T07:46:42;30.85;;;21.40;;
38162;SDS011;23977;53.078;18.248;2023-03-01T07:49:08;29.10;;;20.48;;
38162;SDS011;23977;53.078;18.248;2023-03-01T07:51:35;28.35;;;19.55;;
38162;SDS011;23977;53.078;18.248;2023-03-01T07:54:01;25.83;;;17.75;;
38162;SDS011;23977;53.078;18.248;2023-03-01T07:56:26;25.00;;;17.20;;
38162;SDS011;23977;53.078;18.248;2023-03-01T07:58:52;23.67;;;16.17;;
38162;SDS011;23977;53.078;18.248;2023-03-01T08:01:19;22.70;;;15.82;;
38162;SDS011;23977;53.078;18.248;2023-03-01T08:03:46;21.70;;;16.13;;
38162;SDS011;23977;53.078;18.248;2023-03-01T08:06:13;20.02;;;14.60;;
38162;SDS011;23977;53.078;18.248;2023-03-01T08:08:41;17.88;;;14.07;;
38162;SDS011;23977;53.078;18.248;2023-03-01T08:11:07;19.65;;;13.52;;
38162;SDS011;23977;53.078;18.248;2023-03-01T08:13:35;17.88;;;13.32;;
38162;SDS011;23977;53.078;18.248;2023-03-01T08:16:05;19.10;;;14.55;;
38162;SDS011;23977;53.078;18.248;2023-03-01T08:18:33;17.38;;;13.40;;
38162;SDS011;23977;53.078;18.248;2023-03-01T08:21:03;18.85;;;13.77;;
38162;SDS011;23977;53.078;18.248;2023-03-01T08:23:34;18.52;;;12.73;;
38162;SDS011;23977;53.078;18.248;2023-03-01T08:26:09;19.80;;;13.60;;
38162;SDS011;23977;53.078;18.248;2023-03-01T08:28:37;17.35;;;12.35;;
38162;SDS011;23977;53.078;18.248;2023-03-01T08:31:26;17.75;;;11.73;;
38162;SDS011;23977;53.078;18.248;2023-03-01T08:33:52;18.25;;;12.27;;
38162;SDS011;23977;53.078;18.248;2023-03-01T08:36:21;16.55;;;12.57;;
38162;SDS011;23977;53.078;18.248;2023-03-01T08:38:51;16.45;;;12.65;;
38162;SDS011;23977;53.078;18.248;2023-03-01T08:41:17;17.33;;;11.85;;
38162;SDS011;23977;53.078;18.248;2023-03-01T08:43:43;17.77;;;12.70;;
38162;SDS011;23977;53.078;18.248;2023-03-01T08:46:09;15.55;;;12.13;;
38162;SDS011;23977;53.078;18.248;2023-03-01T08:48:35;15.52;;;11.32;;
38162;SDS011;23977;53.078;18.248;2023-03-01T08:51:12;15.02;;;11.55;;
38162;SDS011;23977;53.078;18.248;2023-03-01T08:53:41;16.00;;;12.27;;
38162;SDS011;23977;53.078;18.248;2023-03-01T08:56:07;15.32;;;11.55;;
38162;SDS011;23977;53.078;18.248;2023-03-01T08:58:34;15.30;;;13.07;;
38162;SDS011;23977;53.078;18.248;2023-03-01T09:01:00;14.73;;;11.05;;
38162;SDS011;23977;53.078;18.248;2023-03-01T09:03:26;18.85;;;13.70;;
38162;SDS011;23977;53.078;18.248;2023-03-01T09:05:52;16.40;;;12.85;;
38162;SDS011;23977;53.078;18.248;2023-03-01T09:08:19;16.02;;;12.48;;
38162;SDS011;23977;53.078;18.248;2023-03-01T09:10:45;17.60;;;13.30;;
38162;SDS011;23977;53.078;18.248;2023-03-01T09:13:11;15.85;;;12.52;;
38162;SDS011;23977;53.078;18.248;2023-03-01T09:15:37;16.27;;;12.18;;
38162;SDS011;23977;53.078;18.248;2023-03-01T09:18:04;17.08;;;12.18;;
38162;SDS011;23977;53.078;18.248;2023-03-01T09:20:30;15.27;;;11.68;;
38162;SDS011;23977;53.078;18.248;2023-03-01T09:22:58;13.50;;;11.68;;
38162;SDS011;23977;53.078;18.248;2023-03-01T09:25:23;14.32;;;11.50;;
38162;SDS011;23977;53.078;18.248;2023-03-01T09:27:53;14.52;;;11.85;;
38162;SDS011;23977;53.078;18.248;2023-03-01T09:30:19;15.07;;;12.10;;
38162;SDS011;23977;53.078;18.248;2023-03-01T09:32:46;16.80;;;13.65;;
38162;SDS011;23977;53.078;18.248;2023-03-01T09:35:11;18.15;;;12.27;;
38162;SDS011;23977;53.078;18.248;2023-03-01T09:37:38;17.80;;;13.90;;
38162;SDS011;23977;53.078;18.248;2023-03-01T09:40:26;18.30;;;13.45;;
38162;SDS011;23977;53.078;18.248;2023-03-01T09:45:29;18.50;;;13.10;;
38162;SDS011;23977;53.078;18.248;2023-03-01T09:48:02;20.58;;;14.27;;
38162;SDS011;23977;53.078;18.248;2023-03-01T09:50:38;19.13;;;14.05;;
38162;SDS011;23977;53.078;18.248;2023-03-01T09:53:13;20.45;;;14.27;;
38162;SDS011;23977;53.078;18.248;2023-03-01T09:58:37;21.45;;;16.23;;
38162;SDS011;23977;53.078;18.248;2023-03-01T10:01:20;18.52;;;14.10;;
38162;SDS011;23977;53.078;18.248;2023-03-01T10:04:02;20.55;;;15.25;;
38162;SDS011;23977;53.078;18.248;2023-03-01T10:06:36;17.98;;;13.93;;
38162;SDS011;23977;53.078;18.248;2023-03-01T10:09:09;19.63;;;13.77;;
38162;SDS011;23977;53.078;18.248;2023-03-01T10:11:39;18.42;;;13.02;;
38162;SDS011;23977;53.078;18.248;2023-03-01T10:14:30;16.42;;;12.18;;
38162;SDS011;23977;53.078;18.248;2023-03-01T10:19:34;16.00;;;11.75;;
38162;SDS011;23977;53.078;18.248;2023-03-01T10:22:15;16.40;;;11.88;;
38162;SDS011;23977;53.078;18.248;2023-03-01T10:24:44;13.75;;;11.80;;
38162;SDS011;23977;53.078;18.248;2023-03-01T10:27:17;16.85;;;11.20;;
38162;SDS011;23977;53.078;18.248;2023-03-01T10:32:45;16.83;;;11.90;;
38162;SDS011;23977;53.078;18.248;2023-03-01T10:35:15;17.15;;;12.52;;
38162;SDS011;23977;53.078;18.248;2023-03-01T10:38:05;16.27;;;12.82;;
38162;SDS011;23977;53.078;18.248;2023-03-01T10:40:34;18.52;;;13.32;;
38162;SDS011;23977;53.078;18.248;2023-03-01T10:43:04;20.00;;;13.38;;
38162;SDS011;23977;53.078;18.248;2023-03-01T10:45:33;20.33;;;14.52;;
38162;SDS011;23977;53.078;18.248;2023-03-01T10:48:03;20.42;;;13.38;;
38162;SDS011;23977;53.078;18.248;2023-03-01T10:50:45;20.35;;;12.60;;
38162;SDS011;23977;53.078;18.248;2023-03-01T10:53:48;22.13;;;12.38;;
38162;SDS011;23977;53.078;18.248;2023-03-01T10:56:13;21.35;;;11.73;;
38162;SDS011;23977;53.078;18.248;2023-03-01T10:58:41;16.88;;;10.63;;
38162;SDS011;23977;53.078;18.248;2023-03-01T11:01:30;23.42;;;11.95;;
38162;SDS011;23977;53.078;18.248;2023-03-01T11:04:08;17.15;;;10.55;;
38162;SDS011;23977;53.078;18.248;2023-03-01T11:06:37;17.45;;;11.00;;
38162;SDS011;23977;53.078;18.248;2023-03-01T11:11:44;18.15;;;10.80;;
38162;SDS011;23977;53.078;18.248;2023-03-01T11:14:15;17.13;;;10.38;;
38162;SDS011;23977;53.078;18.248;2023-03-01T11:16:44;17.63;;;10.50;;
38162;SDS011;23977;53.078;18.248;2023-03-01T11:19:14;17.52;;;10.63;;
38162;SDS011;23977;53.078;18.248;2023-03-01T11:24:42;16.27;;;10.02;;
38162;SDS011;23977;53.078;18.248;2023-03-01T11:27:33;19.40;;;10.90;;
38162;SDS011;23977;53.078;18.248;2023-03-01T11:30:43;17.60;;;9.85;;
38162;SDS011;23977;53.078;18.248;2023-03-01T11:36:03;17.35;;;9.90;;
38162;SDS011;23977;53.078;18.248;2023-03-01T11:38:34;17.52;;;9.95;;
38162;SDS011;23977;53.078;18.248;2023-03-01T11:41:06;16.33;;;9.00;;
38162;SDS011;23977;53.078;18.248;2023-03-01T11:43:40;16.38;;;9.23;;
38162;SDS011;23977;53.078;18.248;2023-03-01T11:52:02;14.75;;;8.45;;
38162;SDS011;23977;53.078;18.248;2023-03-01T12:14:28;12.95;;;7.20;;
38162;SDS011;23977;53.078;18.248;2023-03-01T12:20:11;15.93;;;8.75;;
38162;SDS011;23977;53.078;18.248;2023-03-01T12:25:41;15.65;;;9.35;;
38162;SDS011;23977;53.078;18.248;2023-03-01T12:28:25;14.35;;;8.80;;
38162;SDS011;23977;53.078;18.248;2023-03-01T12:31:00;16.88;;;9.27;;
38162;SDS011;23977;53.078;18.248;2023-03-01T12:33:39;16.58;;;8.95;;
38162;SDS011;23977;53.078;18.248;2023-03-01T12:36:20;18.10;;;9.55;;
38162;SDS011;23977;53.078;18.248;2023-03-01T12:50:27;15.25;;;8.27;;
38162;SDS011;23977;53.078;18.248;2023-03-01T12:53:02;14.23;;;7.38;;
38162;SDS011;23977;53.078;18.248;2023-03-01T12:55:33;12.88;;;7.68;;
38162;SDS011;23977;53.078;18.248;2023-03-01T13:00:38;10.77;;;6.88;;
38162;SDS011;23977;53.078;18.248;2023-03-01T13:03:17;12.98;;;7.57;;
38162;SDS011;23977;53.078;18.248;2023-03-01T13:06:01;13.60;;;7.00;;
38162;SDS011;23977;53.078;18.248;2023-03-01T13:08:39;14.82;;;7.35;;
38162;SDS011;23977;53.078;18.248;2023-03-01T13:11:19;13.55;;;7.47;;
38162;SDS011;23977;53.078;18.248;2023-03-01T13:13:47;13.68;;;7.15;;
38162;SDS011;23977;53.078;18.248;2023-03-01T13:19:16;13.27;;;8.07;;
38162;SDS011;23977;53.078;18.248;2023-03-01T13:21:43;13.90;;;7.45;;
38162;SDS011;23977;53.078;18.248;2023-03-01T13:34:57;14.60;;;8.07;;
38162;SDS011;23977;53.078;18.248;2023-03-01T13:37:26;13.75;;;7.60;;
38162;SDS011;23977;53.078;18.248;2023-03-01T13:39:55;15.82;;;9.00;;
38162;SDS011;23977;53.078;18.248;2023-03-01T13:45:03;15.98;;;8.68;;
38162;SDS011;23977;53.078;18.248;2023-03-01T13:47:38;16.17;;;8.77;;
38162;SDS011;23977;53.078;18.248;2023-03-01T13:50:04;16.40;;;8.80;;
38162;SDS011;23977;53.078;18.248;2023-03-01T13:52:34;16.38;;;9.13;;
38162;SDS011;23977;53.078;18.248;2023-03-01T13:57:46;14.95;;;8.70;;
38162;SDS011;23977;53.078;18.248;2023-03-01T14:03:13;16.25;;;8.40;;
38162;SDS011;23977;53.078;18.248;2023-03-01T14:05:42;15.43;;;9.10;;
38162;SDS011;23977;53.078;18.248;2023-03-01T14:08:23;14.43;;;8.27;;
38162;SDS011;23977;53.078;18.248;2023-03-01T14:10:54;18.38;;;10.10;;
38162;SDS011;23977;53.078;18.248;2023-03-01T14:16:28;17.50;;;9.63;;
38162;SDS011;23977;53.078;18.248;2023-03-01T14:19:00;15.68;;;8.80;;
38162;SDS011;23977;53.078;18.248;2023-03-01T14:21:29;14.52;;;8.60;;
38162;SDS011;23977;53.078;18.248;2023-03-01T14:23:55;15.90;;;8.93;;
38162;SDS011;23977;53.078;18.248;2023-03-01T14:26:22;15.00;;;8.85;;
38162;SDS011;23977;53.078;18.248;2023-03-01T14:28:49;16.90;;;8.48;;
38162;SDS011;23977;53.078;18.248;2023-03-01T14:31:32;17.27;;;8.48;;
38162;SDS011;23977;53.078;18.248;2023-03-01T14:34:03;18.73;;;9.88;;
38162;SDS011;23977;53.078;18.248;2023-03-01T14:36:30;15.27;;;8.77;;
38162;SDS011;23977;53.078;18.248;2023-03-01T14:38:57;17.48;;;9.40;;
38162;SDS011;23977;53.078;18.248;2023-03-01T14:41:31;16.95;;;9.07;;
38162;SDS011;23977;53.078;18.248;2023-03-01T14:44:02;14.90;;;8.32;;
38162;SDS011;23977;53.078;18.248;2023-03-01T14:46:40;15.65;;;8.43;;
38162;SDS011;23977;53.078;18.248;2023-03-01T14:51:37;15.10;;;7.97;;
38162;SDS011;23977;53.078;18.248;2023-03-01T14:54:10;14.15;;;8.35;;
38162;SDS011;23977;53.078;18.248;2023-03-01T14:56:46;18.80;;;11.02;;
38162;SDS011;23977;53.078;18.248;2023-03-01T14:59:13;19.80;;;10.90;;
38162;SDS011;23977;53.078;18.248;2023-03-01T15:01:39;18.52;;;10.02;;
38162;SDS011;23977;53.078;18.248;2023-03-01T15:04:09;19.77;;;9.65;;
38162;SDS011;23977;53.078;18.248;2023-03-01T15:06:37;17.48;;;10.20;;
38162;SDS011;23977;53.078;18.248;2023-03-01T15:09:04;19.00;;;10.32;;
38162;SDS011;23977;53.078;18.248;2023-03-01T15:11:30;18.83;;;10.38;;
38162;SDS011;23977;53.078;18.248;2023-03-01T15:13:57;17.42;;;9.40;;
38162;SDS011;23977;53.078;18.248;2023-03-01T15:16:24;15.85;;;9.23;;
38162;SDS011;23977;53.078;18.248;2023-03-01T15:19:03;22.05;;;11.07;;
38162;SDS011;23977;53.078;18.248;2023-03-01T15:21:35;20.85;;;11.85;;
38162;SDS011;23977;53.078;18.248;2023-03-01T15:24:16;21.13;;;10.25;;
38162;SDS011;23977;53.078;18.248;2023-03-01T15:26:49;20.60;;;10.88;;
38162;SDS011;23977;53.078;18.248;2023-03-01T15:29:40;21.80;;;10.77;;
38162;SDS011;23977;53.078;18.248;2023-03-01T15:32:25;20.10;;;10.57;;
38162;SDS011;23977;53.078;18.248;2023-03-01T15:34:57;21.40;;;11.45;;
38162;SDS011;23977;53.078;18.248;2023-03-01T15:40:28;21.95;;;11.40;;
38162;SDS011;23977;53.078;18.248;2023-03-01T15:45:25;22.63;;;11.25;;
38162;SDS011;23977;53.078;18.248;2023-03-01T15:47:56;22.00;;;10.85;;
38162;SDS011;23977;53.078;18.248;2023-03-01T15:50:28;15.90;;;9.35;;
38162;SDS011;23977;53.078;18.248;2023-03-01T15:52:58;17.55;;;9.98;;
38162;SDS011;23977;53.078;18.248;2023-03-01T15:55:27;17.92;;;9.55;;
38162;SDS011;23977;53.078;18.248;2023-03-01T16:00:30;22.13;;;10.73;;
38162;SDS011;23977;53.078;18.248;2023-03-01T16:02:56;22.13;;;12.07;;
38162;SDS011;23977;53.078;18.248;2023-03-01T16:05:26;21.63;;;12.38;;
38162;SDS011;23977;53.078;18.248;2023-03-01T16:07:56;23.48;;;13.23;;
38162;SDS011;23977;53.078;18.248;2023-03-01T16:10:22;24.65;;;12.68;;
38162;SDS011;23977;53.078;18.248;2023-03-01T16:12:52;23.95;;;13.38;;
38162;SDS011;23977;53.078;18.248;2023-03-01T16:15:22;24.52;;;13.65;;